createdAt,value
2022-10-01T00:02:00.120Z,3.75
2022-10-01T00:04:28.047Z,7.25
2022-10-01T00:06:54.506Z,4.13
2022-10-01T00:09:20.917Z,5.57
2022-10-01T00:11:47.300Z,4.20
2022-10-01T00:14:13.696Z,4.18
2022-10-01T00:16:40.151Z,5.35
2022-10-01T00:19:06.560Z,4.90
2022-10-01T00:21:33.300Z,3.90
2022-10-01T00:24:03.027Z,3.25
2022-10-01T00:26:31.572Z,5.60
2022-10-01T00:29:00.465Z,6.68
2022-10-01T00:31:27.430Z,3.78
2022-10-01T00:33:55.044Z,6.55
2022-10-01T00:36:21.921Z,5.15
2022-10-01T00:38:48.339Z,5.15
2022-10-01T00:41:16.221Z,5.22
2022-10-01T00:43:47.887Z,5.55
2022-10-01T00:46:19.772Z,4.75
2022-10-01T00:48:58.368Z,4.90
2022-10-01T00:51:34.254Z,5.85
2022-10-01T00:54:10.847Z,5.50
2022-10-01T00:56:38.090Z,5.15
2022-10-01T00:59:05.333Z,6.20
2022-10-01T01:01:33.333Z,5.15
2022-10-01T01:03:59.949Z,5.00
2022-10-01T01:06:26.361Z,4.70
2022-10-01T01:08:56.040Z,7.00
2022-10-01T01:11:41.200Z,4.95
2022-10-01T01:14:18.947Z,4.68
2022-10-01T01:16:52.419Z,7.38
2022-10-01T01:19:35.377Z,5.22
2022-10-01T01:22:04.880Z,5.68
2022-10-01T01:24:56.471Z,5.30
2022-10-01T01:28:11.538Z,6.47
2022-10-01T01:30:41.042Z,7.43
2022-10-01T01:33:18.272Z,6.32
2022-10-01T01:35:52.722Z,4.47
2022-10-01T01:38:24.345Z,5.82
2022-10-01T01:40:51.906Z,4.43
2022-10-01T01:43:21.478Z,5.15
2022-10-01T01:45:50.239Z,4.47
2022-10-01T01:48:17.004Z,4.68
2022-10-01T01:50:55.376Z,4.30
2022-10-01T01:53:21.820Z,4.45
2022-10-01T01:55:49.225Z,4.30
2022-10-01T01:58:19.708Z,3.35
2022-10-01T02:00:52.362Z,3.03
2022-10-01T02:03:23.983Z,2.15
2022-10-01T02:06:08.511Z,3.03
2022-10-01T02:09:02.160Z,3.40
2022-10-01T02:11:33.248Z,2.95
2022-10-01T02:14:10.667Z,2.42
2022-10-01T02:16:49.139Z,4.10
2022-10-01T02:19:35.844Z,2.57
2022-10-01T02:22:07.439Z,2.03
2022-10-01T02:24:45.521Z,2.90
2022-10-01T02:27:27.716Z,3.03
2022-10-01T02:29:56.193Z,3.03
2022-10-01T02:32:23.352Z,2.90
2022-10-01T02:34:50.958Z,3.05
2022-10-01T02:37:21.582Z,5.00
2022-10-01T02:39:48.493Z,2.38
2022-10-01T02:42:16.771Z,3.63
2022-10-01T02:44:45.127Z,2.47
2022-10-01T02:47:21.642Z,3.45
2022-10-01T02:49:48.854Z,4.22
2022-10-01T02:52:24.180Z,3.65
2022-10-01T02:54:55.821Z,3.63
2022-10-01T02:57:27.514Z,2.60
2022-10-01T03:00:00.185Z,5.82
2022-10-01T03:02:31.394Z,4.88
2022-10-01T03:04:57.955Z,3.45
2022-10-01T03:07:25.653Z,4.15
2022-10-01T03:09:52.252Z,3.30
2022-10-01T03:12:18.689Z,3.95
2022-10-01T03:14:45.875Z,3.58
2022-10-01T03:17:12.999Z,2.45
2022-10-01T03:19:40.186Z,7.20
2022-10-01T03:22:07.700Z,2.00
2022-10-01T03:24:34.427Z,5.15
2022-10-01T03:27:02.051Z,2.90
2022-10-01T03:29:28.480Z,3.53
2022-10-01T03:31:55.013Z,3.97
2022-10-01T03:34:21.854Z,2.83
2022-10-01T03:36:48.796Z,3.67
2022-10-01T03:39:15.298Z,3.58
2022-10-01T03:41:41.704Z,2.75
2022-10-01T03:44:08.126Z,3.38
2022-10-01T03:46:34.521Z,2.45
2022-10-01T03:49:01.073Z,2.97
2022-10-01T03:51:28.907Z,3.58
2022-10-01T03:53:56.615Z,3.40
2022-10-01T03:56:23.434Z,3.70
2022-10-01T03:58:50.079Z,4.20
2022-10-01T04:01:16.949Z,2.50
2022-10-01T04:03:43.820Z,6.88
2022-10-01T04:06:10.973Z,3.92
2022-10-01T04:08:38.329Z,3.20
2022-10-01T04:11:08.155Z,2.58
2022-10-01T04:13:35.021Z,5.28
2022-10-01T04:16:06.670Z,3.25
2022-10-01T04:18:33.992Z,6.32
2022-10-01T04:21:00.572Z,4.72
2022-10-01T04:23:27.268Z,3.75
2022-10-01T04:25:54.101Z,3.80
2022-10-01T04:28:20.652Z,4.80
2022-10-01T04:30:47.476Z,5.32
2022-10-01T04:33:15.620Z,3.75
2022-10-01T04:35:43.377Z,2.97
2022-10-01T04:38:16.260Z,4.68
2022-10-01T04:40:42.925Z,3.28
2022-10-01T04:43:10.717Z,4.43
2022-10-01T04:45:38.085Z,4.55
2022-10-01T04:48:05.303Z,3.97
2022-10-01T04:50:32.131Z,5.18
2022-10-01T04:52:58.675Z,3.50
2022-10-01T04:55:25.217Z,4.97
2022-10-01T04:57:51.616Z,5.75
2022-10-01T05:00:20.549Z,5.57
2022-10-01T05:02:49.033Z,4.22
2022-10-01T05:05:16.152Z,5.17
2022-10-01T05:07:42.596Z,5.72
2022-10-01T05:10:14.640Z,3.30
2022-10-01T05:12:41.638Z,8.23
2022-10-01T05:15:08.716Z,5.05
2022-10-01T05:17:35.855Z,4.40
2022-10-01T05:20:04.953Z,7.88
2022-10-01T05:22:31.984Z,3.35
2022-10-01T05:25:02.084Z,4.80
2022-10-01T05:27:28.712Z,4.80
2022-10-01T05:29:56.798Z,6.25
2022-10-01T05:32:23.237Z,5.40
2022-10-01T05:34:53.423Z,7.45
2022-10-01T05:37:20.251Z,4.45
2022-10-01T05:39:46.740Z,3.83
2022-10-01T05:42:13.241Z,5.68
2022-10-01T05:44:40.826Z,5.40
2022-10-01T05:47:07.249Z,4.55
2022-10-01T05:49:33.881Z,4.55
2022-10-01T05:52:00.826Z,7.40
2022-10-01T05:54:29.383Z,3.47
2022-10-01T05:56:56.942Z,3.15
2022-10-01T05:59:28.479Z,4.40
2022-10-01T06:01:57.914Z,4.32
2022-10-01T06:04:24.387Z,5.68
2022-10-01T06:06:50.760Z,3.53
2022-10-01T06:09:17.272Z,3.85
2022-10-01T06:11:43.711Z,4.97
2022-10-01T06:14:10.144Z,5.43
2022-10-01T06:16:36.603Z,4.18
2022-10-01T06:19:03.020Z,4.30
2022-10-01T06:21:30.246Z,5.55
2022-10-01T06:23:56.646Z,5.28
2022-10-01T06:26:23.076Z,4.82
2022-10-01T06:28:50.509Z,5.45
2022-10-01T06:31:17.786Z,3.63
2022-10-01T06:33:44.211Z,6.00
2022-10-01T06:36:10.614Z,4.07
2022-10-01T06:38:37.012Z,8.35
2022-10-01T06:41:06.336Z,5.35
2022-10-01T06:43:33.050Z,4.15
2022-10-01T06:46:03.739Z,4.57
2022-10-01T06:48:31.222Z,5.72
2022-10-01T06:50:58.725Z,4.45
2022-10-01T06:53:27.268Z,3.92
2022-10-01T06:55:55.337Z,3.85
2022-10-01T06:58:26.090Z,4.47
2022-10-01T07:00:58.279Z,3.75
2022-10-01T07:03:24.771Z,4.85
2022-10-01T07:05:51.206Z,5.45
2022-10-01T07:08:17.887Z,3.42
2022-10-01T07:10:45.417Z,3.35
2022-10-01T07:13:17.442Z,4.93
2022-10-01T07:15:44.579Z,5.15
2022-10-01T07:18:11.328Z,5.35
2022-10-01T07:20:41.250Z,5.78
2022-10-01T07:23:10.823Z,3.63
2022-10-01T07:25:38.972Z,4.63
2022-10-01T07:28:07.431Z,4.18
2022-10-01T07:30:34.263Z,4.60
2022-10-01T07:33:00.649Z,3.92
2022-10-01T07:35:27.060Z,3.85
2022-10-01T07:37:55.139Z,4.00
2022-10-01T07:40:21.681Z,3.33
2022-10-01T07:42:55.392Z,4.63
2022-10-01T07:45:22.939Z,3.65
2022-10-01T07:47:54.282Z,4.28
2022-10-01T07:50:20.829Z,3.00
2022-10-01T07:52:51.585Z,3.42
2022-10-01T07:55:18.518Z,4.57
2022-10-01T07:57:52.946Z,3.58
2022-10-01T08:00:19.890Z,3.45
2022-10-01T08:02:48.191Z,2.90
2022-10-01T08:05:17.468Z,5.82
2022-10-01T08:07:47.728Z,4.85
2022-10-01T08:10:15.436Z,3.05
2022-10-01T08:12:42.625Z,4.25
2022-10-01T08:15:10.794Z,3.83
2022-10-01T08:17:40.624Z,3.38
2022-10-01T08:20:09.173Z,3.25
2022-10-01T08:22:39.768Z,3.95
2022-10-01T08:25:08.371Z,6.22
2022-10-01T08:27:35.066Z,4.30
2022-10-01T08:30:01.459Z,3.55
2022-10-01T08:32:28.111Z,3.30
2022-10-01T08:34:59.752Z,2.40
2022-10-01T08:37:28.172Z,2.83
2022-10-01T08:39:55.928Z,6.33
2022-10-01T08:42:42.061Z,3.90
2022-10-01T08:45:34.694Z,2.45
2022-10-01T08:48:33.192Z,3.90
2022-10-01T08:51:04.861Z,2.15
2022-10-01T08:53:40.918Z,2.00
2022-10-01T08:56:22.140Z,2.30
2022-10-01T08:58:54.067Z,4.20
2022-10-01T09:01:21.322Z,2.55
2022-10-01T09:03:48.547Z,2.33
2022-10-01T09:06:22.621Z,2.92
2022-10-01T09:09:17.459Z,2.38
2022-10-01T09:11:49.176Z,2.90
2022-10-01T09:14:41.420Z,2.70
2022-10-01T09:17:37.748Z,4.13
2022-10-01T09:20:21.208Z,5.55
2022-10-01T09:23:25.311Z,4.57
2022-10-01T09:25:51.776Z,3.60
2022-10-01T09:28:23.784Z,2.95
2022-10-01T09:30:54.747Z,4.47
2022-10-01T09:33:23.160Z,2.58
2022-10-01T09:36:01.328Z,2.97
2022-10-01T09:38:39.854Z,2.60
2022-10-01T09:41:08.260Z,3.97
2022-10-01T09:43:37.461Z,2.37
2022-10-01T09:46:07.061Z,2.95
2022-10-01T09:48:38.948Z,2.15
2022-10-01T09:51:18.804Z,2.03
2022-10-01T09:53:49.771Z,4.18
2022-10-01T09:56:21.739Z,2.25
2022-10-01T09:58:52.746Z,2.78
2022-10-01T10:01:44.015Z,1.80
2022-10-01T10:04:11.166Z,2.97
2022-10-01T10:06:38.908Z,3.33
2022-10-01T10:09:05.372Z,2.08
2022-10-01T10:11:32.204Z,2.58
2022-10-01T10:14:01.257Z,1.92
2022-10-01T10:16:35.169Z,1.98
2022-10-01T10:19:03.960Z,1.20
2022-10-01T10:21:34.735Z,2.45
2022-10-01T10:24:03.646Z,2.53
2022-10-01T10:26:39.213Z,2.00
2022-10-01T10:29:08.459Z,1.83
2022-10-01T10:31:41.348Z,2.38
2022-10-01T10:34:13.560Z,2.30
2022-10-01T10:36:41.588Z,1.85
2022-10-01T10:39:19.477Z,1.15
2022-10-01T10:41:47.223Z,1.02
2022-10-01T10:44:15.252Z,1.90
2022-10-01T10:46:45.967Z,3.75
2022-10-01T10:49:21.441Z,8.43
2022-10-01T10:51:55.291Z,4.45
2022-10-01T10:54:24.329Z,1.95
2022-10-01T10:56:54.587Z,1.52
2022-10-01T10:59:20.963Z,1.92
2022-10-01T11:01:48.101Z,1.30
2022-10-01T11:04:23.816Z,1.63
2022-10-01T11:06:58.180Z,2.20
2022-10-01T11:09:29.889Z,1.23
2022-10-01T11:12:14.544Z,2.22
2022-10-01T11:14:49.383Z,2.60
2022-10-01T11:17:45.059Z,2.28
2022-10-01T11:20:33.958Z,2.08
2022-10-01T11:23:22.141Z,0.80
2022-10-01T11:26:20.165Z,2.42
2022-10-01T11:28:57.540Z,1.50
2022-10-01T11:31:40.228Z,1.88
2022-10-01T11:34:18.884Z,1.58
2022-10-01T11:36:48.036Z,1.17
2022-10-01T11:39:18.824Z,1.23
2022-10-01T11:41:50.480Z,4.20
2022-10-01T11:44:21.999Z,1.83
2022-10-01T11:47:11.435Z,2.53
2022-10-01T11:49:57.086Z,1.65
2022-10-01T11:52:53.672Z,2.05
2022-10-01T11:55:49.374Z,2.95
2022-10-01T11:58:39.725Z,1.20
2022-10-01T12:01:23.889Z,2.65
2022-10-01T12:03:52.945Z,2.40
2022-10-01T12:06:41.984Z,1.50
2022-10-01T12:09:17.437Z,1.70
2022-10-01T12:11:50.652Z,3.30
2022-10-01T12:14:29.505Z,3.20
2022-10-01T12:16:59.894Z,1.70
2022-10-01T12:19:30.016Z,1.42
2022-10-01T12:22:05.256Z,2.78
2022-10-01T12:24:36.453Z,2.10
2022-10-01T12:27:14.617Z,3.05
2022-10-01T12:29:51.599Z,3.03
2022-10-01T12:32:40.011Z,1.52
2022-10-01T12:35:27.667Z,2.15
2022-10-01T12:38:12.704Z,1.95
2022-10-01T12:40:45.383Z,2.25
2022-10-01T12:43:35.657Z,1.83
2022-10-01T12:46:14.128Z,2.63
2022-10-01T12:48:47.971Z,2.35
2022-10-01T12:51:27.384Z,1.30
2022-10-01T12:54:02.742Z,2.75
2022-10-01T12:56:37.162Z,2.25
2022-10-01T12:59:26.853Z,2.35
2022-10-01T13:02:10.051Z,1.52
2022-10-01T13:04:45.952Z,2.08
2022-10-01T13:07:37.008Z,2.58
2022-10-01T13:10:39.256Z,2.42
2022-10-01T13:13:11.833Z,3.25
2022-10-01T13:15:40.947Z,1.33
2022-10-01T13:18:22.551Z,1.98
2022-10-01T13:20:59.464Z,2.50
2022-10-01T13:23:34.376Z,1.80
2022-10-01T13:26:04.976Z,1.38
2022-10-01T13:28:55.863Z,2.60
2022-10-01T13:31:34.935Z,2.40
2022-10-01T13:34:02.639Z,1.67
2022-10-01T13:36:31.459Z,3.40
2022-10-01T13:38:58.228Z,1.92
2022-10-01T13:41:27.723Z,2.15
2022-10-01T13:44:09.307Z,2.83
2022-10-01T13:46:48.889Z,2.03
2022-10-01T13:49:25.131Z,1.70
2022-10-01T13:51:52.511Z,3.83
2022-10-01T13:54:27.567Z,4.88
2022-10-01T13:56:54.205Z,2.80
2022-10-01T13:59:34.143Z,1.55
2022-10-01T14:02:00.659Z,4.72
2022-10-01T14:04:37.616Z,2.13
2022-10-01T14:07:17.621Z,2.03
2022-10-01T14:09:50.476Z,2.22
2022-10-01T14:12:52.276Z,2.88
2022-10-01T14:15:57.348Z,2.83
2022-10-01T14:18:26.751Z,3.03
2022-10-01T14:20:53.098Z,2.63
2022-10-01T14:23:56.770Z,3.60
2022-10-01T14:26:30.164Z,1.27
2022-10-01T14:29:02.862Z,1.63
2022-10-01T14:31:39.908Z,2.25
2022-10-01T14:34:33.586Z,1.33
2022-10-01T14:37:00.493Z,4.40
2022-10-01T14:39:29.050Z,1.58
2022-10-01T14:41:57.213Z,6.15
2022-10-01T14:44:43.668Z,2.72
2022-10-01T14:47:22.048Z,1.77
2022-10-01T14:49:49.434Z,2.23
2022-10-01T14:52:29.182Z,2.47
2022-10-01T14:55:07.666Z,2.35
2022-10-01T14:57:38.076Z,1.60
2022-10-01T15:00:12.554Z,2.20
2022-10-01T15:02:52.100Z,2.55
2022-10-01T15:05:29.839Z,1.83
2022-10-01T15:07:56.255Z,2.53
2022-10-01T15:10:26.360Z,2.53
2022-10-01T15:12:53.747Z,3.92
2022-10-01T15:15:23.105Z,3.45
2022-10-01T15:20:16.386Z,2.88
2022-10-01T15:22:45.275Z,2.33
2022-10-01T15:25:19.239Z,2.90
2022-10-01T15:27:45.663Z,2.50
2022-10-01T15:30:14.768Z,3.67
2022-10-01T15:32:41.791Z,2.42
2022-10-01T15:35:11.917Z,3.50
2022-10-01T15:37:39.168Z,2.53
2022-10-01T15:40:07.992Z,3.10
2022-10-01T15:42:35.211Z,2.13
2022-10-01T15:45:21.067Z,2.15
2022-10-01T15:47:52.457Z,2.60
2022-10-01T15:50:24.037Z,5.05
2022-10-01T15:52:53.312Z,2.75
2022-10-01T15:58:31.583Z,3.83
2022-10-01T16:01:05.137Z,2.47
2022-10-01T16:03:38.683Z,2.50
2022-10-01T16:06:08.111Z,3.55
2022-10-01T16:08:48.988Z,6.30
2022-10-01T16:11:20.146Z,3.92
2022-10-01T16:13:49.744Z,4.97
2022-10-01T16:16:20.949Z,7.15
2022-10-01T16:18:58.657Z,2.58
2022-10-01T16:21:25.777Z,3.17
2022-10-01T16:23:53.953Z,4.13
2022-10-01T16:26:37.242Z,2.83
2022-10-01T16:29:12.876Z,4.32
2022-10-01T16:31:41.110Z,2.60
2022-10-01T16:34:18.444Z,5.57
2022-10-01T16:36:45.311Z,2.53
2022-10-01T16:39:15.359Z,2.95
2022-10-01T16:41:43.036Z,3.08
2022-10-01T16:44:12.929Z,5.65
2022-10-01T16:46:39.879Z,4.35
2022-10-01T16:49:11.851Z,4.47
2022-10-01T16:51:40.146Z,3.60
2022-10-01T16:54:16.700Z,2.25
2022-10-01T16:56:43.257Z,3.00
2022-10-01T16:59:10.200Z,3.80
2022-10-01T17:01:36.698Z,3.20
2022-10-01T17:04:03.172Z,3.65
2022-10-01T17:06:29.576Z,6.40
2022-10-01T17:08:55.947Z,3.38
2022-10-01T17:11:24.101Z,4.32
2022-10-01T17:13:51.167Z,3.30
2022-10-01T17:16:19.445Z,6.63
2022-10-01T17:18:47.863Z,3.83
2022-10-01T17:21:14.317Z,3.95
2022-10-01T17:23:40.735Z,5.35
2022-10-01T17:26:08.458Z,3.92
2022-10-01T17:28:35.414Z,4.03
2022-10-01T17:31:06.433Z,3.03
2022-10-01T17:33:33.197Z,4.47
2022-10-01T17:35:59.623Z,4.82
2022-10-01T17:38:26.147Z,4.85
2022-10-01T17:40:56.444Z,4.20
2022-10-01T17:43:23.481Z,4.72
2022-10-01T17:45:56.015Z,3.97
2022-10-01T17:48:22.469Z,4.47
2022-10-01T17:50:58.108Z,5.28
2022-10-01T17:53:26.575Z,4.65
2022-10-01T17:55:54.821Z,4.78
2022-10-01T17:58:21.264Z,4.53
2022-10-01T18:00:47.743Z,5.57
2022-10-01T18:03:14.224Z,4.47
2022-10-01T18:05:42.086Z,6.43
2022-10-01T18:08:08.487Z,6.82
2022-10-01T18:10:34.853Z,5.80
2022-10-01T18:13:01.457Z,5.57
2022-10-01T18:15:27.913Z,3.95
2022-10-01T18:18:42.741Z,3.17
2022-10-01T18:20:40.805Z,4.00
2022-10-01T18:23:07.208Z,6.45
2022-10-01T18:25:33.664Z,7.30
2022-10-01T18:28:00.262Z,5.70
2022-10-01T18:30:26.685Z,5.45
2022-10-01T18:32:56.933Z,4.57
2022-10-01T18:35:34.514Z,3.80
2022-10-01T18:38:21.509Z,3.97
2022-10-01T18:40:54.856Z,6.53
2022-10-01T18:43:23.286Z,4.78
2022-10-01T18:45:57.382Z,4.97
2022-10-01T18:48:47.469Z,5.13
2022-10-01T18:51:32.328Z,8.38
2022-10-01T18:54:20.863Z,5.18
2022-10-01T18:56:57.965Z,6.40
2022-10-01T18:59:41.209Z,4.88
2022-10-01T19:02:31.623Z,7.85
2022-10-01T19:05:26.869Z,5.75
2022-10-01T19:08:08.780Z,6.90
2022-10-01T19:10:58.514Z,5.55
2022-10-01T19:13:33.485Z,4.55
2022-10-01T19:16:21.829Z,7.13
2022-10-01T19:19:07.506Z,7.40
2022-10-01T19:21:45.138Z,6.15
2022-10-01T19:24:21.440Z,5.70
2022-10-01T19:27:17.141Z,6.00
2022-10-01T19:29:56.672Z,4.53
2022-10-01T19:32:26.076Z,5.07
2022-10-01T19:35:03.626Z,5.80
2022-10-01T19:37:37.107Z,3.83
2022-10-01T19:40:18.225Z,5.35
2022-10-01T19:42:50.071Z,5.93
2022-10-01T19:45:24.904Z,8.15
2022-10-01T19:48:27.860Z,5.85
2022-10-01T19:50:59.985Z,5.85
2022-10-01T19:53:30.939Z,7.25
2022-10-01T19:56:00.141Z,9.68
2022-10-01T19:58:27.527Z,11.48
2022-10-01T20:00:56.643Z,8.50
2022-10-01T20:03:32.049Z,8.60
2022-10-01T20:06:04.280Z,11.68
2022-10-01T20:08:34.036Z,7.65
2022-10-01T20:11:14.005Z,7.07
2022-10-01T20:13:52.504Z,7.13
2022-10-01T20:16:27.163Z,7.47
2022-10-01T20:19:03.138Z,5.55
2022-10-01T20:21:40.024Z,5.07
2022-10-01T20:24:28.682Z,7.45
2022-10-01T20:27:13.773Z,11.50
2022-10-01T20:29:49.339Z,6.38
2022-10-01T20:32:23.295Z,5.18
2022-10-01T20:35:16.941Z,8.02
2022-10-01T20:38:07.332Z,9.20
2022-10-01T20:40:53.904Z,6.50
2022-10-01T20:43:31.243Z,10.77
2022-10-01T20:45:59.972Z,11.02
2022-10-01T20:48:37.427Z,10.32
2022-10-01T20:51:14.356Z,9.65
2022-10-01T20:53:53.308Z,9.90
2022-10-01T20:56:31.484Z,10.07
2022-10-01T20:59:10.105Z,11.25
2022-10-01T21:01:53.043Z,12.82
2022-10-01T21:04:23.602Z,13.50
2022-10-01T21:06:56.107Z,10.10
2022-10-01T21:09:28.944Z,11.77
2022-10-01T21:12:02.558Z,11.10
2022-10-01T21:14:34.287Z,9.00
2022-10-01T21:17:15.384Z,14.75
2022-10-01T21:19:52.005Z,10.95
2022-10-01T21:22:31.980Z,11.90
2022-10-01T21:25:27.663Z,11.27
2022-10-01T21:28:18.975Z,17.00
2022-10-01T21:31:13.301Z,10.55
2022-10-01T21:33:53.870Z,14.50
2022-10-01T21:36:30.672Z,15.10
2022-10-01T21:39:09.290Z,14.52
2022-10-01T21:41:43.377Z,15.55
2022-10-01T21:44:34.381Z,15.93
2022-10-01T21:47:13.831Z,16.63
2022-10-01T21:50:04.940Z,12.75
2022-10-01T21:53:10.307Z,13.60
2022-10-01T21:56:10.121Z,13.55
2022-10-01T21:58:49.426Z,17.60
2022-10-01T22:01:31.679Z,15.13
2022-10-01T22:04:08.681Z,15.75
2022-10-01T22:06:53.348Z,11.48
2022-10-01T22:09:27.104Z,10.32
2022-10-01T22:11:55.844Z,12.05
2022-10-01T22:14:31.349Z,14.73
2022-10-01T22:17:05.784Z,15.70
2022-10-01T22:19:37.060Z,10.27
2022-10-01T22:22:09.635Z,13.50
2022-10-01T22:24:45.235Z,16.75
2022-10-01T22:27:19.989Z,15.30
2022-10-01T22:29:52.580Z,16.48
2022-10-01T22:32:22.060Z,13.00
2022-10-01T22:37:20.920Z,13.73
2022-10-01T22:39:56.202Z,15.32
2022-10-01T22:42:30.200Z,16.90
2022-10-01T22:45:01.747Z,18.70
2022-10-01T22:47:31.139Z,13.60
2022-10-01T22:53:08.606Z,18.67
2022-10-01T22:55:54.370Z,14.57
2022-10-01T22:58:25.078Z,13.55
2022-10-01T23:01:03.877Z,17.05
2022-10-01T23:03:59.042Z,10.73
2022-10-01T23:06:39.269Z,16.23
2022-10-01T23:09:13.731Z,14.07
2022-10-01T23:11:55.877Z,14.27
2022-10-01T23:14:39.273Z,14.40
2022-10-01T23:17:28.006Z,14.73
2022-10-01T23:20:16.673Z,13.32
2022-10-01T23:23:06.685Z,18.67
2022-10-01T23:25:45.700Z,20.42
2022-10-01T23:28:19.261Z,12.98
2022-10-01T23:31:03.633Z,11.90
2022-10-01T23:33:51.304Z,13.38
2022-10-01T23:36:39.057Z,15.15
2022-10-01T23:39:25.439Z,13.77
2022-10-01T23:42:00.029Z,15.55
2022-10-01T23:44:35.267Z,12.98
2022-10-01T23:47:04.845Z,12.88
2022-10-01T23:49:36.080Z,12.95
2022-10-01T23:52:03.600Z,17.08
2022-10-01T23:54:37.110Z,17.77
2022-10-01T23:57:09.461Z,12.50
2022-10-01T23:59:42.568Z,16.48
